createdAt,value
2023-01-07T00:00:40.499Z,27.72
2023-01-07T00:01:40.460Z,26.52
2023-01-07T00:02:40.472Z,25.59
2023-01-07T00:03:40.415Z,25.71
2023-01-07T00:04:40.361Z,26.05
2023-01-07T00:05:40.345Z,27.85
2023-01-07T00:06:40.337Z,28.70
2023-01-07T00:07:40.311Z,30.10
2023-01-07T00:08:40.281Z,29.42
2023-01-07T00:09:40.347Z,26.04
2023-01-07T00:10:40.226Z,28.93
2023-01-07T00:11:40.217Z,27.98
2023-01-07T00:12:40.189Z,27.70
2023-01-07T00:13:40.169Z,26.89
2023-01-07T00:14:40.142Z,28.55
2023-01-07T00:15:40.149Z,28.18
2023-01-07T00:16:40.111Z,28.58
2023-01-07T00:17:40.074Z,28.81
2023-01-07T00:18:40.051Z,28.09
2023-01-07T00:19:40.043Z,27.54
2023-01-07T00:20:40.007Z,29.29
2023-01-07T00:21:39.992Z,28.62
2023-01-07T00:22:39.977Z,28.00
2023-01-07T00:23:39.946Z,27.43
2023-01-07T00:24:39.916Z,27.43
2023-01-07T00:25:40.001Z,28.57
2023-01-07T00:26:39.876Z,26.97
2023-01-07T00:27:39.858Z,28.28
2023-01-07T00:28:39.837Z,27.27
2023-01-07T00:29:39.827Z,27.49
2023-01-07T00:30:39.807Z,27.64
2023-01-07T00:31:39.855Z,28.05
2023-01-07T00:32:39.778Z,27.43
2023-01-07T00:33:39.759Z,28.32
2023-01-07T00:34:39.737Z,27.89
2023-01-07T00:35:39.722Z,28.82
2023-01-07T00:36:39.716Z,28.92
2023-01-07T00:37:39.687Z,28.23
2023-01-07T00:38:39.694Z,28.49
2023-01-07T00:39:41.285Z,27.32
2023-01-07T00:40:39.668Z,29.53
2023-01-07T00:41:39.720Z,28.65
2023-01-07T00:42:39.609Z,28.31
2023-01-07T00:43:39.591Z,25.64
2023-01-07T00:44:39.574Z,27.40
2023-01-07T00:45:39.564Z,30.31
2023-01-07T00:46:39.570Z,29.26
2023-01-07T00:47:39.548Z,29.83
2023-01-07T00:48:39.500Z,28.71
2023-01-07T00:49:39.491Z,30.04
2023-01-07T00:50:39.471Z,28.00
2023-01-07T00:51:39.451Z,27.28
2023-01-07T00:52:39.435Z,29.37
2023-01-07T00:53:39.422Z,29.15
2023-01-07T00:54:39.400Z,28.73
2023-01-07T00:55:39.382Z,27.29
2023-01-07T00:56:39.363Z,28.93
2023-01-07T00:57:39.454Z,28.99
2023-01-07T00:58:39.351Z,28.35
2023-01-07T00:59:39.318Z,26.44
2023-01-07T01:00:39.338Z,27.11
2023-01-07T01:01:39.432Z,29.51
2023-01-07T01:02:39.312Z,27.83
2023-01-07T01:03:39.255Z,27.67
2023-01-07T01:04:39.231Z,29.29
2023-01-07T01:05:39.204Z,29.66
2023-01-07T01:06:39.180Z,28.51
2023-01-07T01:07:39.152Z,28.68
2023-01-07T01:08:39.124Z,28.76
2023-01-07T01:09:39.134Z,28.74
2023-01-07T01:11:00.965Z,29.60
2023-01-07T01:11:39.083Z,29.26
2023-01-07T01:12:39.047Z,30.62
2023-01-07T01:13:39.145Z,31.46
2023-01-07T01:14:39.012Z,32.10
2023-01-07T01:15:38.992Z,32.48
2023-01-07T01:16:39.110Z,31.71
2023-01-07T01:17:38.946Z,32.44
2023-01-07T01:18:38.941Z,32.27
2023-01-07T01:19:38.915Z,30.00
2023-01-07T01:20:38.902Z,31.00
2023-01-07T01:21:38.878Z,30.01
2023-01-07T01:22:38.881Z,28.64
2023-01-07T01:23:38.879Z,32.03
2023-01-07T01:24:38.844Z,30.62
2023-01-07T01:25:38.825Z,30.96
2023-01-07T01:26:38.836Z,28.14
2023-01-07T01:27:38.812Z,29.03
2023-01-07T01:28:38.776Z,30.06
2023-01-07T01:29:38.857Z,28.97
2023-01-07T01:30:38.755Z,30.96
2023-01-07T01:31:38.775Z,29.67
2023-01-07T01:32:38.697Z,30.93
2023-01-07T01:33:38.676Z,27.76
2023-01-07T01:34:38.656Z,32.27
2023-01-07T01:35:38.631Z,30.70
2023-01-07T01:36:38.619Z,30.17
2023-01-07T01:37:38.593Z,32.34
2023-01-07T01:38:38.587Z,29.31
2023-01-07T01:39:38.534Z,29.14
2023-01-07T01:40:38.516Z,28.48
2023-01-07T01:41:38.488Z,27.89
2023-01-07T01:42:38.502Z,30.29
2023-01-07T01:43:38.461Z,30.50
2023-01-07T01:44:38.442Z,27.67
2023-01-07T01:45:38.524Z,29.84
2023-01-07T01:46:38.474Z,30.11
2023-01-07T01:47:38.392Z,29.12
2023-01-07T01:48:38.375Z,30.21
2023-01-07T01:49:38.369Z,27.79
2023-01-07T01:50:38.362Z,29.83
2023-01-07T01:51:38.313Z,30.78
2023-01-07T01:52:38.308Z,30.11
2023-01-07T01:53:38.283Z,31.84
2023-01-07T01:54:38.268Z,30.02
2023-01-07T01:55:38.242Z,28.19
2023-01-07T01:56:38.257Z,30.55
2023-01-07T01:57:38.214Z,31.33
2023-01-07T01:58:38.191Z,30.29
2023-01-07T01:59:38.173Z,28.69
2023-01-07T02:00:38.221Z,29.21
2023-01-07T02:01:38.500Z,27.50
2023-01-07T02:02:38.164Z,27.86
2023-01-07T02:03:38.089Z,27.57
2023-01-07T02:04:38.062Z,27.67
2023-01-07T02:05:40.341Z,31.12
2023-01-07T02:06:38.006Z,31.17
2023-01-07T02:07:37.981Z,31.14
2023-01-07T02:08:37.953Z,31.07
2023-01-07T02:09:37.925Z,30.36
2023-01-07T02:10:37.900Z,29.62
2023-01-07T02:11:37.871Z,28.19
2023-01-07T02:12:37.839Z,30.65
2023-01-07T02:13:37.816Z,29.63
2023-01-07T02:14:37.796Z,30.88
2023-01-07T02:15:37.771Z,30.29
2023-01-07T02:16:37.795Z,30.40
2023-01-07T02:17:37.822Z,29.05
2023-01-07T02:18:37.724Z,31.05
2023-01-07T02:19:37.707Z,30.66
2023-01-07T02:20:37.659Z,28.64
2023-01-07T02:21:37.638Z,30.03
2023-01-07T02:22:37.608Z,31.01
2023-01-07T02:23:37.581Z,29.89
2023-01-07T02:24:37.567Z,29.39
2023-01-07T02:25:37.535Z,29.27
2023-01-07T02:26:37.504Z,29.19
2023-01-07T02:27:37.468Z,29.63
2023-01-07T02:28:37.449Z,29.80
2023-01-07T02:29:37.419Z,29.85
2023-01-07T02:30:37.399Z,29.59
2023-01-07T02:31:37.433Z,30.88
2023-01-07T02:32:37.347Z,30.52
2023-01-07T02:33:37.415Z,30.39
2023-01-07T02:34:37.316Z,30.52
2023-01-07T02:35:37.287Z,30.03
2023-01-07T02:36:37.273Z,31.48
2023-01-07T02:37:37.258Z,30.65
2023-01-07T02:38:37.237Z,29.16
2023-01-07T02:39:37.227Z,29.11
2023-01-07T02:40:37.213Z,31.43
2023-01-07T02:41:37.176Z,30.74
2023-01-07T02:42:37.164Z,31.40
2023-01-07T02:43:37.134Z,31.14
2023-01-07T02:44:37.144Z,31.11
2023-01-07T02:45:37.110Z,30.26
2023-01-07T02:46:37.049Z,29.67
2023-01-07T02:47:37.025Z,30.53
2023-01-07T02:48:37.004Z,29.50
2023-01-07T02:49:37.072Z,29.07
2023-01-07T02:50:36.954Z,28.95
2023-01-07T02:51:36.929Z,28.62
2023-01-07T02:52:36.906Z,29.49
2023-01-07T02:53:36.889Z,28.20
2023-01-07T02:54:36.856Z,30.84
2023-01-07T02:55:36.843Z,28.62
2023-01-07T02:56:36.807Z,29.78
2023-01-07T02:57:36.783Z,29.22
2023-01-07T02:58:36.760Z,29.45
2023-01-07T02:59:36.743Z,30.83
2023-01-07T03:00:36.758Z,29.79
2023-01-07T03:01:36.757Z,31.02
2023-01-07T03:02:36.652Z,28.75
2023-01-07T03:03:36.640Z,30.90
2023-01-07T03:04:36.596Z,29.86
2023-01-07T03:05:36.676Z,29.56
2023-01-07T03:06:36.558Z,29.40
2023-01-07T03:07:36.530Z,30.12
2023-01-07T03:08:36.515Z,30.43
2023-01-07T03:09:36.471Z,29.34
2023-01-07T03:10:36.450Z,29.02
2023-01-07T03:11:36.420Z,29.30
2023-01-07T03:12:36.407Z,29.07
2023-01-07T03:13:36.390Z,30.73
2023-01-07T03:14:36.349Z,29.38
2023-01-07T03:15:36.393Z,30.73
2023-01-07T03:16:36.408Z,30.65
2023-01-07T03:17:36.295Z,29.41
2023-01-07T03:18:36.261Z,30.12
2023-01-07T03:19:36.286Z,29.98
2023-01-07T03:20:36.226Z,30.04
2023-01-07T03:21:36.306Z,28.92
2023-01-07T03:22:36.176Z,30.26
2023-01-07T03:23:36.148Z,29.79
2023-01-07T03:24:36.130Z,30.58
2023-01-07T03:25:36.101Z,30.18
2023-01-07T03:26:36.079Z,30.32
2023-01-07T03:27:36.054Z,30.37
2023-01-07T03:28:36.021Z,30.73
2023-01-07T03:29:36.001Z,31.02
2023-01-07T03:30:35.968Z,31.06
2023-01-07T03:31:36.025Z,31.28
2023-01-07T03:32:35.958Z,30.77
2023-01-07T03:33:35.893Z,29.98
2023-01-07T03:34:35.884Z,30.64
2023-01-07T03:35:35.836Z,29.98
2023-01-07T03:36:35.807Z,31.00
2023-01-07T03:37:35.873Z,29.99
2023-01-07T03:38:35.763Z,29.21
2023-01-07T03:39:35.729Z,29.86
2023-01-07T03:40:35.701Z,29.50
2023-01-07T03:41:35.679Z,29.54
2023-01-07T03:42:35.659Z,29.84
2023-01-07T03:43:35.641Z,30.71
2023-01-07T03:44:35.621Z,31.43
2023-01-07T03:45:35.624Z,29.99
2023-01-07T03:46:35.597Z,31.11
2023-01-07T03:47:35.578Z,31.61
2023-01-07T03:48:35.557Z,30.91
2023-01-07T03:49:35.562Z,30.26
2023-01-07T03:50:35.536Z,31.72
2023-01-07T03:51:35.517Z,27.65
2023-01-07T03:52:35.535Z,29.48
2023-01-07T03:53:35.484Z,30.85
2023-01-07T03:54:35.522Z,30.65
2023-01-07T03:55:35.454Z,32.67
2023-01-07T03:56:35.442Z,30.45
2023-01-07T03:57:35.423Z,31.21
2023-01-07T03:58:35.388Z,28.91
2023-01-07T03:59:35.365Z,30.59
2023-01-07T04:00:35.354Z,29.27
2023-01-07T04:01:35.444Z,31.33
2023-01-07T04:02:35.292Z,28.82
2023-01-07T04:03:35.271Z,28.80
2023-01-07T04:04:35.375Z,30.98
2023-01-07T04:05:35.239Z,29.29
2023-01-07T04:06:35.207Z,30.49
2023-01-07T04:07:35.183Z,30.67
2023-01-07T04:08:35.161Z,30.69
2023-01-07T04:09:35.223Z,30.74
2023-01-07T04:10:35.141Z,31.23
2023-01-07T04:11:35.080Z,30.72
2023-01-07T04:12:35.058Z,31.01
2023-01-07T04:13:35.032Z,31.40
2023-01-07T04:14:35.010Z,31.53
2023-01-07T04:15:34.988Z,32.44
2023-01-07T04:16:35.044Z,30.87
2023-01-07T04:17:34.938Z,31.32
2023-01-07T04:18:34.905Z,29.92
2023-01-07T04:19:34.870Z,31.84
2023-01-07T04:20:34.845Z,29.34
2023-01-07T04:21:34.826Z,30.27
2023-01-07T04:22:34.788Z,31.62
2023-01-07T04:23:34.777Z,31.74
2023-01-07T04:24:34.741Z,31.68
2023-01-07T04:25:34.799Z,31.25
2023-01-07T04:26:34.681Z,30.18
2023-01-07T04:27:34.662Z,31.13
2023-01-07T04:28:34.613Z,30.79
2023-01-07T04:29:34.581Z,29.23
2023-01-07T04:30:34.583Z,30.04
2023-01-07T04:31:34.522Z,30.27
2023-01-07T04:32:34.513Z,28.70
2023-01-07T04:33:34.479Z,28.11
2023-01-07T04:34:34.449Z,29.55
2023-01-07T04:35:34.419Z,29.68
2023-01-07T04:36:34.396Z,30.13
2023-01-07T04:37:34.381Z,29.98
2023-01-07T04:38:34.361Z,30.46
2023-01-07T04:39:34.330Z,29.70
2023-01-07T04:40:34.333Z,27.72
2023-01-07T04:41:34.393Z,30.45
2023-01-07T04:42:34.266Z,29.73
2023-01-07T04:43:34.238Z,28.77
2023-01-07T04:44:34.217Z,29.51
2023-01-07T04:45:34.200Z,28.56
2023-01-07T04:46:34.219Z,28.67
2023-01-07T04:47:34.128Z,29.94
2023-01-07T04:48:34.097Z,30.11
2023-01-07T04:49:34.071Z,30.25
2023-01-07T04:50:34.052Z,30.50
2023-01-07T04:51:34.003Z,30.01
2023-01-07T04:52:33.994Z,31.10
2023-01-07T04:53:33.958Z,31.96
2023-01-07T04:54:33.941Z,28.89
2023-01-07T04:55:33.922Z,32.65
2023-01-07T04:56:33.903Z,31.23
2023-01-07T04:57:33.978Z,30.18
2023-01-07T04:58:33.895Z,31.17
2023-01-07T04:59:33.851Z,30.74
2023-01-07T05:00:33.814Z,31.18
2023-01-07T05:01:33.903Z,31.83
2023-01-07T05:02:33.750Z,30.29
2023-01-07T05:03:33.722Z,30.94
2023-01-07T05:04:33.761Z,31.36
2023-01-07T05:05:33.664Z,28.91
2023-01-07T05:06:33.642Z,32.03
2023-01-07T05:07:33.622Z,32.20
2023-01-07T05:08:33.603Z,32.07
2023-01-07T05:09:33.571Z,30.55
2023-01-07T05:10:33.550Z,32.36
2023-01-07T05:11:33.536Z,31.88
2023-01-07T05:12:33.502Z,30.37
2023-01-07T05:13:33.582Z,30.40
2023-01-07T05:14:33.457Z,32.20
2023-01-07T05:15:33.421Z,29.73
2023-01-07T05:16:33.512Z,30.93
2023-01-07T05:17:33.369Z,30.63
2023-01-07T05:18:33.333Z,30.41
2023-01-07T05:19:33.316Z,29.94
2023-01-07T05:20:33.275Z,30.89
2023-01-07T05:21:33.255Z,31.59
2023-01-07T05:22:33.225Z,30.33
2023-01-07T05:23:33.206Z,29.15
2023-01-07T05:24:33.169Z,30.28
2023-01-07T05:25:33.129Z,31.42
2023-01-07T05:26:33.099Z,32.51
2023-01-07T05:27:33.074Z,28.97
2023-01-07T05:28:33.053Z,29.91
2023-01-07T05:29:33.105Z,32.27
2023-01-07T05:30:33.008Z,30.60
2023-01-07T05:31:32.966Z,30.98
2023-01-07T05:32:32.930Z,29.82
2023-01-07T05:33:32.921Z,32.02
2023-01-07T05:34:32.892Z,31.11
2023-01-07T05:35:32.859Z,29.80
2023-01-07T05:36:32.840Z,31.12
2023-01-07T05:37:32.804Z,31.32
2023-01-07T05:38:32.772Z,30.21
2023-01-07T05:39:32.757Z,33.29
2023-01-07T05:40:32.719Z,30.47
2023-01-07T05:41:32.691Z,31.05
2023-01-07T05:42:32.669Z,32.38
2023-01-07T05:43:32.658Z,32.55
2023-01-07T05:44:32.611Z,32.56
2023-01-07T05:45:32.672Z,33.28
2023-01-07T05:46:32.642Z,32.49
2023-01-07T05:47:32.537Z,34.04
2023-01-07T05:48:32.492Z,33.40
2023-01-07T05:49:32.471Z,31.45
2023-01-07T05:50:32.460Z,31.88
2023-01-07T05:51:32.416Z,32.59
2023-01-07T05:52:32.428Z,33.78
2023-01-07T05:53:32.378Z,32.44
2023-01-07T05:54:32.353Z,32.37
2023-01-07T05:55:32.320Z,34.70
2023-01-07T05:56:32.313Z,33.34
2023-01-07T05:57:32.260Z,33.75
2023-01-07T05:58:32.229Z,34.71
2023-01-07T05:59:32.201Z,33.27
2023-01-07T06:00:32.173Z,34.06
2023-01-07T06:01:32.418Z,34.25
2023-01-07T06:02:32.110Z,34.25
2023-01-07T06:03:32.191Z,34.33
2023-01-07T06:04:32.114Z,33.32
2023-01-07T06:05:32.032Z,33.65
2023-01-07T06:06:31.991Z,33.93
2023-01-07T06:07:31.974Z,33.61
2023-01-07T06:08:31.940Z,34.68
2023-01-07T06:09:31.915Z,34.86
2023-01-07T06:10:31.881Z,34.80
2023-01-07T06:11:31.858Z,35.09
2023-01-07T06:12:31.837Z,34.69
2023-01-07T06:13:31.817Z,35.57
2023-01-07T06:14:31.801Z,33.88
2023-01-07T06:15:31.846Z,34.41
2023-01-07T06:16:31.745Z,33.46
2023-01-07T06:17:31.815Z,33.91
2023-01-07T06:18:31.701Z,32.63
2023-01-07T06:19:31.677Z,33.93
2023-01-07T06:20:31.637Z,33.72
2023-01-07T06:21:31.608Z,33.91
2023-01-07T06:22:31.580Z,34.21
2023-01-07T06:23:31.552Z,34.19
2023-01-07T06:24:31.549Z,34.90
2023-01-07T06:25:31.512Z,34.95
2023-01-07T06:26:31.483Z,34.12
2023-01-07T06:27:31.452Z,32.61
2023-01-07T06:28:31.419Z,32.35
2023-01-07T06:29:31.414Z,33.31
2023-01-07T06:30:31.362Z,33.69
2023-01-07T06:31:31.375Z,33.64
2023-01-07T06:32:31.300Z,33.27
2023-01-07T06:33:33.377Z,33.90
2023-01-07T06:34:31.262Z,35.64
2023-01-07T06:35:31.219Z,33.95
2023-01-07T06:36:31.190Z,33.58
2023-01-07T06:37:31.158Z,34.94
2023-01-07T06:38:31.270Z,34.04
2023-01-07T06:39:31.100Z,33.29
2023-01-07T06:40:31.093Z,34.35
2023-01-07T06:41:31.059Z,32.89
2023-01-07T06:42:31.041Z,34.62
2023-01-07T06:43:31.190Z,36.54
2023-01-07T06:44:31.004Z,34.00
2023-01-07T06:45:30.986Z,33.72
2023-01-07T06:46:31.044Z,34.51
2023-01-07T06:47:30.939Z,34.00
2023-01-07T06:48:30.914Z,34.53
2023-01-07T06:49:30.977Z,34.76
2023-01-07T06:50:30.878Z,34.25
2023-01-07T06:51:30.846Z,34.42
2023-01-07T06:52:30.814Z,34.58
2023-01-07T06:53:30.793Z,34.63
2023-01-07T06:54:30.770Z,34.87
2023-01-07T06:55:30.751Z,37.11
2023-01-07T06:56:30.731Z,35.75
2023-01-07T06:57:30.707Z,33.58
2023-01-07T06:58:30.685Z,33.54
2023-01-07T06:59:30.657Z,35.69
2023-01-07T07:00:30.684Z,35.32
2023-01-07T07:01:30.792Z,35.79
2023-01-07T07:02:30.708Z,35.19
2023-01-07T07:03:30.650Z,32.56
2023-01-07T07:04:30.535Z,34.51
2023-01-07T07:05:30.602Z,35.01
2023-01-07T07:06:30.488Z,36.61
2023-01-07T07:07:30.455Z,34.68
2023-01-07T07:08:30.421Z,35.15
2023-01-07T07:09:30.393Z,34.81
2023-01-07T07:10:30.379Z,34.71
2023-01-07T07:11:30.341Z,34.94
2023-01-07T07:12:30.323Z,33.62
2023-01-07T07:13:30.301Z,34.50
2023-01-07T07:14:30.268Z,35.67
2023-01-07T07:15:30.240Z,35.35
2023-01-07T07:16:32.517Z,36.37
2023-01-07T07:17:30.198Z,35.29
2023-01-07T07:18:30.161Z,36.08
2023-01-07T07:19:30.125Z,34.32
2023-01-07T07:20:30.121Z,35.43
2023-01-07T07:21:30.167Z,36.24
2023-01-07T07:22:30.066Z,34.97
2023-01-07T07:23:30.033Z,35.03
2023-01-07T07:24:30.004Z,33.76
2023-01-07T07:25:29.971Z,34.86
2023-01-07T07:26:29.957Z,35.87
2023-01-07T07:27:29.934Z,36.02
2023-01-07T07:28:29.903Z,36.04
2023-01-07T07:29:29.888Z,35.89
2023-01-07T07:30:45.873Z,36.01
2023-01-07T07:31:30.880Z,36.09
2023-01-07T07:32:29.795Z,36.20
2023-01-07T07:33:29.766Z,36.49
2023-01-07T07:34:29.742Z,36.68
2023-01-07T07:35:29.713Z,35.63
2023-01-07T07:36:29.695Z,35.53
2023-01-07T07:37:29.750Z,36.28
2023-01-07T07:38:29.633Z,34.70
2023-01-07T07:39:29.610Z,35.54
2023-01-07T07:40:29.593Z,35.60
2023-01-07T07:41:29.565Z,35.37
2023-01-07T07:42:29.547Z,34.79
2023-01-07T07:43:29.526Z,34.94
2023-01-07T07:44:29.511Z,34.85
2023-01-07T07:45:29.490Z,33.97
2023-01-07T07:46:29.504Z,35.41
2023-01-07T07:47:29.453Z,35.67
2023-01-07T07:48:29.430Z,35.06
2023-01-07T07:49:29.409Z,36.41
2023-01-07T07:50:29.387Z,36.17
2023-01-07T07:51:29.360Z,35.03
2023-01-07T07:52:29.335Z,33.96
2023-01-07T07:53:29.432Z,36.16
2023-01-07T07:54:29.296Z,33.16
2023-01-07T07:55:29.277Z,33.64
2023-01-07T07:56:29.248Z,36.18
2023-01-07T07:57:29.234Z,33.39
2023-01-07T07:58:29.208Z,33.68
2023-01-07T07:59:29.177Z,34.43
2023-01-07T08:00:29.179Z,33.49
2023-01-07T08:01:29.285Z,34.73
2023-01-07T08:02:29.250Z,34.35
2023-01-07T08:03:29.149Z,35.19
2023-01-07T08:04:29.104Z,35.99
2023-01-07T08:05:29.070Z,36.76
2023-01-07T08:06:29.027Z,35.73
2023-01-07T08:07:32.053Z,34.90
2023-01-07T08:08:28.992Z,35.04
2023-01-07T08:09:28.973Z,35.30
2023-01-07T08:10:28.951Z,35.64
2023-01-07T08:11:28.909Z,35.86
2023-01-07T08:12:28.875Z,37.11
2023-01-07T08:13:28.848Z,35.16
2023-01-07T08:14:28.813Z,37.00
2023-01-07T08:15:28.789Z,35.63
2023-01-07T08:16:28.792Z,36.65
2023-01-07T08:17:28.744Z,37.25
2023-01-07T08:18:28.710Z,38.62
2023-01-07T08:19:28.687Z,36.00
2023-01-07T08:20:28.653Z,39.27
2023-01-07T08:21:28.623Z,36.96
2023-01-07T08:22:28.602Z,36.87
2023-01-07T08:23:28.582Z,35.77
2023-01-07T08:24:28.565Z,35.93
2023-01-07T08:25:28.640Z,36.89
2023-01-07T08:26:28.528Z,36.72
2023-01-07T08:27:28.517Z,35.53
2023-01-07T08:28:28.491Z,38.43
2023-01-07T08:29:28.466Z,35.37
2023-01-07T08:30:28.457Z,38.52
2023-01-07T08:31:28.477Z,38.76
2023-01-07T08:32:28.440Z,37.05
2023-01-07T08:33:28.408Z,37.75
2023-01-07T08:34:28.382Z,38.93
2023-01-07T08:35:28.368Z,39.07
2023-01-07T08:36:28.319Z,38.34
2023-01-07T08:37:28.295Z,39.05
2023-01-07T08:38:28.265Z,40.59
2023-01-07T08:39:28.227Z,39.86
2023-01-07T08:40:28.199Z,40.26
2023-01-07T08:41:28.276Z,40.54
2023-01-07T08:42:28.138Z,41.20
2023-01-07T08:43:28.103Z,40.03
2023-01-07T08:44:28.078Z,41.03
2023-01-07T08:45:28.054Z,41.21
2023-01-07T08:46:28.087Z,41.44
2023-01-07T08:47:28.006Z,42.39
2023-01-07T08:48:27.995Z,42.41
2023-01-07T08:49:27.979Z,41.15
2023-01-07T08:50:27.956Z,41.76
2023-01-07T08:51:27.944Z,43.02
2023-01-07T08:52:28.019Z,44.05
2023-01-07T08:53:27.915Z,42.06
2023-01-07T08:54:27.884Z,43.57
2023-01-07T08:55:27.849Z,42.53
2023-01-07T08:56:27.823Z,43.83
2023-01-07T08:57:27.794Z,42.85
2023-01-07T08:58:27.770Z,43.53
2023-01-07T08:59:27.736Z,45.00
2023-01-07T09:00:27.807Z,45.37
2023-01-07T09:01:27.794Z,46.73
2023-01-07T09:02:27.675Z,45.36
2023-01-07T09:03:27.622Z,47.89
2023-01-07T09:04:27.599Z,49.11
2023-01-07T09:05:27.573Z,46.19
2023-01-07T09:06:27.564Z,47.05
2023-01-07T09:07:27.527Z,47.22
2023-01-07T09:08:27.533Z,47.21
2023-01-07T09:09:27.476Z,50.44
2023-01-07T09:10:27.462Z,49.33
2023-01-07T09:11:27.432Z,48.63
2023-01-07T09:12:27.406Z,50.93
2023-01-07T09:13:27.475Z,50.13
2023-01-07T09:14:27.362Z,50.21
2023-01-07T09:15:27.318Z,48.90
2023-01-07T09:16:27.319Z,52.15
2023-01-07T09:17:27.269Z,51.16
2023-01-07T09:18:27.248Z,49.99
2023-01-07T09:19:27.219Z,49.09
2023-01-07T09:20:27.191Z,51.55
2023-01-07T09:21:27.170Z,51.49
2023-01-07T09:22:27.136Z,50.63
2023-01-07T09:23:27.109Z,51.62
2023-01-07T09:24:27.081Z,51.85
2023-01-07T09:25:27.055Z,51.62
2023-01-07T09:26:27.018Z,52.28
2023-01-07T09:27:26.990Z,52.32
2023-01-07T09:28:26.969Z,52.73
2023-01-07T09:29:27.021Z,53.47
2023-01-07T09:30:26.916Z,54.52
2023-01-07T09:31:26.888Z,52.67
2023-01-07T09:32:26.857Z,53.69
2023-01-07T09:33:26.824Z,54.20
2023-01-07T09:34:26.825Z,52.94
2023-01-07T09:35:26.796Z,51.44
2023-01-07T09:36:26.770Z,52.96
2023-01-07T09:37:26.748Z,53.24
2023-01-07T09:38:26.740Z,53.50
2023-01-07T09:39:26.701Z,53.90
2023-01-07T09:40:26.676Z,55.39
2023-01-07T09:41:26.667Z,55.34
2023-01-07T09:42:26.629Z,56.91
2023-01-07T09:43:26.602Z,57.14
2023-01-07T09:44:27.583Z,57.33
2023-01-07T09:45:26.730Z,57.42
2023-01-07T09:46:26.533Z,57.53
2023-01-07T09:47:26.524Z,57.44
2023-01-07T09:48:26.499Z,59.26
2023-01-07T09:49:26.487Z,56.08
2023-01-07T09:50:26.526Z,57.58
2023-01-07T09:51:26.428Z,58.63
2023-01-07T09:52:26.421Z,56.49
2023-01-07T09:53:26.369Z,55.77
2023-01-07T09:54:26.346Z,58.12
2023-01-07T09:55:26.314Z,57.75
2023-01-07T09:56:26.291Z,55.75
2023-01-07T09:57:26.254Z,58.32
2023-01-07T09:58:26.245Z,57.61
2023-01-07T09:59:26.206Z,57.54
2023-01-07T10:00:26.163Z,58.43
2023-01-07T10:01:26.281Z,58.78
2023-01-07T10:02:26.150Z,59.66
2023-01-07T10:03:26.076Z,58.79
2023-01-07T10:04:26.042Z,58.07
2023-01-07T10:05:25.997Z,58.38
2023-01-07T10:06:42.019Z,58.87
2023-01-07T10:07:26.909Z,59.06
2023-01-07T10:08:31.109Z,59.19
2023-01-07T10:09:26.849Z,59.39
2023-01-07T10:10:25.803Z,59.96
2023-01-07T10:11:25.767Z,61.12
2023-01-07T10:12:25.726Z,60.71
2023-01-07T10:13:25.694Z,60.84
2023-01-07T10:14:25.669Z,60.94
2023-01-07T10:15:25.632Z,59.74
2023-01-07T10:16:25.611Z,59.90
2023-01-07T10:17:25.666Z,62.69
2023-01-07T10:18:25.529Z,61.08
2023-01-07T10:19:25.503Z,60.42
2023-01-07T10:20:25.467Z,61.08
2023-01-07T10:21:25.437Z,61.58
2023-01-07T10:22:25.409Z,60.79
2023-01-07T10:23:25.379Z,58.28
2023-01-07T10:24:25.357Z,59.11
2023-01-07T10:25:25.330Z,61.21
2023-01-07T10:26:25.299Z,60.86
2023-01-07T10:27:25.259Z,59.55
2023-01-07T10:28:25.237Z,61.30
2023-01-07T10:29:25.218Z,58.76
2023-01-07T10:30:25.170Z,61.16
2023-01-07T10:31:25.139Z,60.67
2023-01-07T10:32:25.110Z,60.03
2023-01-07T10:33:25.229Z,59.92
2023-01-07T10:34:25.048Z,60.21
2023-01-07T10:35:25.011Z,60.45
2023-01-07T10:36:24.982Z,61.77
2023-01-07T10:37:24.948Z,61.00
2023-01-07T10:38:24.919Z,63.21
2023-01-07T10:39:24.884Z,61.31
2023-01-07T10:40:24.850Z,59.67
2023-01-07T10:41:24.807Z,58.89
2023-01-07T10:42:24.785Z,62.51
2023-01-07T10:43:24.746Z,60.84
2023-01-07T10:44:24.705Z,61.83
2023-01-07T10:45:24.683Z,61.91
2023-01-07T10:46:24.638Z,61.61
2023-01-07T10:47:24.610Z,62.15
2023-01-07T10:48:24.576Z,60.61
2023-01-07T10:49:24.626Z,60.83
2023-01-07T10:50:24.508Z,59.45
2023-01-07T10:51:24.467Z,59.78
2023-01-07T10:52:24.431Z,57.89
2023-01-07T10:53:24.407Z,62.11
2023-01-07T10:54:24.369Z,58.87
2023-01-07T10:55:24.353Z,62.92
2023-01-07T10:56:24.312Z,60.24
2023-01-07T10:57:24.288Z,58.26
2023-01-07T10:58:24.249Z,61.32
2023-01-07T10:59:24.196Z,61.55
2023-01-07T11:00:24.164Z,60.05
2023-01-07T11:01:24.260Z,60.38
2023-01-07T11:02:24.230Z,59.74
2023-01-07T11:03:24.037Z,60.05
2023-01-07T11:04:24.008Z,60.66
2023-01-07T11:05:24.062Z,59.14
2023-01-07T11:06:23.925Z,60.87
2023-01-07T11:07:23.889Z,61.07
2023-01-07T11:08:23.859Z,60.92
2023-01-07T11:09:23.824Z,61.17
2023-01-07T11:10:23.803Z,61.18
2023-01-07T11:11:23.760Z,60.97
2023-01-07T11:12:23.727Z,61.12
2023-01-07T11:13:23.698Z,61.17
2023-01-07T11:14:23.693Z,59.93
2023-01-07T11:15:23.656Z,58.24
2023-01-07T11:16:23.642Z,59.44
2023-01-07T11:17:23.574Z,58.76
2023-01-07T11:18:23.550Z,58.36
2023-01-07T11:19:23.515Z,60.04
2023-01-07T11:20:23.483Z,57.74
2023-01-07T11:21:42.963Z,58.86
2023-01-07T11:22:24.402Z,59.01
2023-01-07T11:23:23.369Z,58.90
2023-01-07T11:24:23.327Z,58.60
2023-01-07T11:25:23.300Z,60.31
2023-01-07T11:26:23.273Z,58.45
2023-01-07T11:27:23.234Z,57.84
2023-01-07T11:28:23.197Z,58.17
2023-01-07T11:29:23.151Z,58.41
2023-01-07T11:30:23.127Z,58.45
2023-01-07T11:31:23.177Z,57.73
2023-01-07T11:32:23.024Z,58.46
2023-01-07T11:33:22.998Z,56.14
2023-01-07T11:34:23.965Z,56.33
2023-01-07T11:35:23.222Z,56.53
2023-01-07T11:36:22.873Z,56.60
2023-01-07T11:37:22.923Z,57.07
2023-01-07T11:38:22.780Z,59.70
2023-01-07T11:39:22.785Z,56.57
2023-01-07T11:40:22.709Z,57.63
2023-01-07T11:41:22.666Z,56.14
2023-01-07T11:42:22.621Z,56.39
2023-01-07T11:43:22.574Z,56.44
2023-01-07T11:44:22.541Z,55.64
2023-01-07T11:45:22.503Z,59.29
2023-01-07T11:46:24.539Z,58.58
2023-01-07T11:47:22.408Z,58.69
2023-01-07T11:48:22.374Z,58.61
2023-01-07T11:49:22.339Z,57.72
2023-01-07T11:50:22.280Z,55.81
2023-01-07T11:51:22.254Z,56.90
2023-01-07T11:52:22.222Z,57.13
2023-01-07T11:53:22.266Z,54.65
2023-01-07T11:54:22.168Z,55.69
2023-01-07T11:55:22.094Z,60.54
2023-01-07T11:56:22.054Z,57.46
2023-01-07T11:57:22.022Z,55.54
2023-01-07T11:58:27.999Z,57.70
2023-01-07T11:59:22.956Z,58.01
2023-01-07T12:00:21.904Z,57.97
2023-01-07T12:01:21.926Z,58.15
2023-01-07T12:02:21.907Z,56.83
2023-01-07T12:03:21.880Z,56.08
2023-01-07T12:04:21.765Z,56.84
2023-01-07T12:05:21.735Z,54.33
2023-01-07T12:06:21.694Z,55.85
2023-01-07T12:07:21.686Z,54.05
2023-01-07T12:08:21.639Z,54.51
2023-01-07T12:09:21.692Z,52.00
2023-01-07T12:10:21.571Z,55.30
2023-01-07T12:11:21.528Z,55.28
2023-01-07T12:12:21.509Z,55.44
2023-01-07T12:13:21.463Z,55.49
2023-01-07T12:14:21.429Z,54.53
2023-01-07T12:15:21.404Z,55.78
2023-01-07T12:16:21.437Z,57.69
2023-01-07T12:17:21.337Z,56.22
2023-01-07T12:18:21.298Z,57.02
2023-01-07T12:19:21.274Z,53.89
2023-01-07T12:20:21.246Z,52.72
2023-01-07T12:21:21.227Z,54.37
2023-01-07T12:22:21.201Z,54.99
2023-01-07T12:23:21.160Z,55.93
2023-01-07T12:24:21.125Z,55.33
2023-01-07T12:25:21.185Z,54.89
2023-01-07T12:26:21.078Z,52.55
2023-01-07T12:27:21.047Z,54.06
2023-01-07T12:28:21.012Z,54.16
2023-01-07T12:29:21.006Z,56.28
2023-01-07T12:30:20.951Z,55.12
2023-01-07T12:31:20.955Z,51.15
2023-01-07T12:32:20.913Z,54.48
2023-01-07T12:33:20.879Z,51.59
2023-01-07T12:34:20.833Z,55.78
2023-01-07T12:35:20.817Z,54.44
2023-01-07T12:36:20.779Z,52.68
2023-01-07T12:37:20.768Z,50.86
2023-01-07T12:38:20.728Z,53.63
2023-01-07T12:39:20.699Z,52.66
2023-01-07T12:40:20.663Z,54.36
2023-01-07T12:41:20.739Z,50.19
2023-01-07T12:42:23.826Z,54.08
2023-01-07T12:43:20.562Z,54.09
2023-01-07T12:44:20.523Z,54.10
2023-01-07T12:45:20.500Z,54.44
2023-01-07T12:46:20.524Z,54.70
2023-01-07T12:47:30.587Z,55.22
2023-01-07T12:48:21.378Z,54.25
2023-01-07T12:49:20.336Z,54.65
2023-01-07T12:50:20.305Z,54.00
2023-01-07T12:51:20.267Z,56.40
2023-01-07T12:52:20.227Z,55.08